Timeline UpdatesTrip UpdatesNews PostsPvt Posts♥♥Travel TipsAdmin PostsConv PostsFollowed PostsChat RequestsBlog PostsPNR Posts

Disclaimer
Search
 
 
Wed Nov 26, 2014 13:10:22 ISTHomeTrainsΣChainsAtlasPNRForumGalleryNewsFAQTripsMembersLoginFeedback
No Recent News for this Train
Other Trains in the News **new
Latest...
.
Thu Jan 03, 2013 (07:52PM)
⇐ Return Journey: Train# 12137

12138/Punjab Mail

Time-Table HAS CHANGED.
Sep 18 2014 (9:28PM)
Change Departure Station:
Change Arrival Station:
Post a Train Travel TipPost a Train Travel Tip **new
Post a Comment/Question/Picture/VideoPost a Comment/Question/Picture/Video
Inaugural Run
Sat Jun 01, 1912
Pantry/Catering
✓ Pantry Car Avbl
✓ Catering Avbl
RSA - Rake Sharing
No RSA.
Rake/Coach Composition
Loco-SLR(Ladies+ RMS)-GEN (Military)-HA1-A1-AB1-B1-B2-B3-B4-B5-S1-PC-S2-S3-S4-S5-S6-S7-S8-S9-S10-GEN-GEN-SLR
Loco
FZR-NDLS=> BGKT WDP-4/4B; NDLS-IGP=> GZB WAP-4/7; IGP-CSTM=> KYN WCAM-3.
News    PNR    Forum    Time-Table    Availability    Fare Chart    Map    Arr/Dep History    Trips    Gallery    ΣChains    X/O    Timeline    
Travel Time: 13h 28m    15 halts    Distance: 767 km    Avg Speed: 56 km/hr
Type: SuperFast
Zone: CR/Central
Departs @ 18:07
Platform# 2
SMTWTFS
Hoshangabad/HBD 
Arrives @ 07:35 +1 night
Platform# 14
SMTWTFS
Mumbai CST/CSTM 

15 halts. 121 intermediate Stations between Hoshangabad and Mumbai CST

Show ALL intermediate Stations  Show Old Time-Table

#TrkCodeStation NameX/OArrivesAvgDepartsAvgHaltPFDay#KmSpeedElevZoneAddress
1|--|FZRFirozpur Cantt. Junction (5)  -21:40-11-1163.677200mNRFirozpur Cantt 152001, Punjab
2|--|FDKFaridkot (3)  22:05-22:07-2m11-1131.455202mNRFaridkot, Punjab
3|--|KKPKot Kapura Junction (3)  22:21-22:23-2m11-1118.6650mNRKotkapura, Punjab
4|--|GJUTGangsar Jaitu (3)X  22:38-22:40-2m11-1102.361207mNRJaitu, Punjab
5|--|GNAGoneana Bhai Jagta (3)  22:54-22:56-2m11-1088.225206mNRGoniana, Punjab
6|--|BTIBathinda Junction (6)X  23:25-23:35-10m71-1075.979208mNRBathinda, Punjab
7!==!MAURMaur  00:02-00:04-2m12-1040.375220mNRMaur Mandi, Punjab
8!==!MSZMansa  00:19-00:21-2m12-1021.669222mNRMansa, Punjab
9!==!BLZBudhlada  00:35-00:37-2m12-1005.571223mNRBudhlada, Punjab
10!==!BRZBareta  00:50-00:52-2m12-990.253223mNRBareta, Punjab
11!==!JHLJakhal JunctionX  01:08-01:10-2m--2-975.952225mNRJakhal, Haryana
12|==|TUNTohana (2)X  01:24-01:26-2m12-963.780232mNRTohana, Haryana
13|==|NRWNarwana Junction (4)  01:45-01:47-2m--2-938.362235mNRKKDE, Haryana
14|==|JINDJind Junction (3)X  02:21 02:20-02:23-2 3m--2-904.370222mNRJind 126102, Haryana
15|==|ROKRohtak Junction (3)  03:12-03:14-2m--2-847.381220mNRRohtak, Haryana
16/==/BGZBahadurgarh  03:44-03:46-2m--2-807.048220mNRBahadurgarh, Haryana
17/==/SSBShakur Basti  04:11-04:13-2m--2-787.035216mNRPitampura, Delhi NCT
18/==/DKZDelhi KishanGanj (2)  04:25-04:27-2m12-780.110220mNRSarai Rohilla, Delhi NCT
19/==/NDLSNew Delhi (16)X04:50-05:15-25m32-776.258215mNRNew Delhi 110002, Delhi NCT
20/==/FDBFaridabad (4)  05:44-05:46-2m32-748.061206mNRold Faridabad, Haryana
21/==/KSVKosi Kalan (3)O  06:57-06:59-2m12-676.365189mNCRKosi Kalan, Uttar Pradesh
22/==/MTJMathura Junction (10)X  07:37-07:40-3m12-634.873179mNCRMathura, Uttar Pradesh
23/==/RKMRaja Ki Mandi (4)X  08:21-08:23-2m22-585.29170mNCRAgra, Uttar Pradesh
24/==/AGCAgra Cantt. (6)X  08:50-08:55-5m12-581.290174mNCRAgra, Uttar Pradesh
25/==/DHODholpur Junction (3)X  09:30-09:32-2m22-528.670177mNCRDholpur, Rajasthan
26/==/MRAMorena (3)X  09:55-09:57-2m12-501.775176mNCRMorena, Madhya Pradesh
27/==/GWLGwalior Junction (4)  10:28-10:33-5m12-463.263214mNCRGwalior, Madhya Pradesh
28/==/DBADabra (3)X  11:13-11:15-2m12-420.867 NCRDabra(District-Gwalior), Madhya Pradesh
29/==/DAADatia (2)O  11:42-11:44-2m12-390.537264mNCRDatia, Madhya Pradesh
30/==/JHSJhansi Junction (7)X  12:25-12:33 12:35-8 10m32-365.467259mNCRJhansi, Uttar Pradesh
31/==/BABBabina (3)X  12:58-13:00-2m12-339.986285mNCRBabina, Uttar Pradesh
32/==/LARLalitpur (3)  13:45-13:47-2m12-275.165373mNCRLalitpur, Uttar Pradesh
33/==/BINABina Junction (5)  14:45-14:50-5m22-212.283414mWCRJn Pt - KATNI/GUNA/ BPL/JHS, Madhya Pradesh
34/==/BAQGanj Basoda (4)  15:22 15:23-15:24 15:25-2m22-166.587 WCRVidisha, Madhya Pradesh
35/==/BHSVidisha (3)X  15:52-15:54-2m22-127.257 WCRVidisha, Madhya Pradesh
36/==/BPLBhopal Junction (6)X  16:50-16:55-5m12-73.638497mWCRBhopal, Madhya Pradesh
37/==/HBJBhopal HabibGanj (5)  17:05-17:07-2m42-67.470496mWCRHabibGanj, Madhya Pradesh
38/==/HBDHoshangabad (2)»X  18:05-18:07-2m220.039308mWCRHoshangabad, Madhya Pradesh
39/==/ETItarsi Junction (7)  18:35-18:40-5m4218.184329mWCRItarsi 461111, Madhya Pradesh
40/==/BPFBanapura (2)X  19:04-19:06-2m1251.682314mWCRBanapura, Madhya Pradesh
41/==/HDHarda (3)  19:37-19:39-2m1293.976289mWCRHarda, Madhya Pradesh
42/==/KKNKhirkiya (2)  20:04-20:06-2m12125.449281mWCRSH 15, Madhya Pradesh
43/==/KNWKhandwa Junction (5)X  21:40-21:45-5m22201.586310mCRKhandwa, Madhya Pradesh
44/==/BAUBurhanpur (2)  22:33-22:35-2m12270.465269mCRBurhanpur, Madhya Pradesh
45/==/BSLBhusaval Junction (8)X  23:25-23:35-10m32324.960208mCRBhusaval 425201, Maharashtra
46/==/JLJalgaon Junction (4)  23:59-00:01-2m22349.096213mCRJalgaon 425001, Maharashtra
47/==/CSNChalisgaon Junction (3)X  00:59-01:01-2m13441.683352mCRChalisgaon 424101, Maharashtra
48/==/MMRManmad Junction (6)XO  01:50-01:55-5m33509.187580mCRManmad 423104, Maharashtra
49/==/NKNasik Road (3)X  02:45-02:50-5m33581.843563mCRNashik 422101, Maharashtra
50/==/DVLDevlali (3)X  02:58-03:00-2m23587.632561mCRDist. Nashik 422401, Maharashtra
51/==/IGPIgatpuri (4)04:25-04:30-5m33632.545589mCRIgatpuri 422403, Maharashtra
52/==/KYNKalyan Junction (8)X  06:20-06:25-5m53714.37210mCRKalyan 421301, Maharashtra
53/==/DRMumbai Dadar Central (8)  07:10 07:02-07:15 07:05-5 3m63758.8177mCRMumbai 400014, Maharashtra
54/==/CSTMMumbai CST (18)•  07:35--143767.4-10mCRMumbai 400001, Maharashtra
Scroll to Top
Scroll to Bottom